sensor_id;sensor_type;location;lat;lon;timestamp;pressure;altitude;pressure_sealevel;temperature;humidity
77410;BME280;66481;51.332;22.804;2023-08-07T00:01:30;97838.97;;;15.63;100.00
77410;BME280;66481;51.332;22.804;2023-08-07T00:05:31;97855.59;;;15.65;100.00
77410;BME280;66481;51.332;22.804;2023-08-07T00:09:32;97855.28;;;15.53;100.00
77410;BME280;66481;51.332;22.804;2023-08-07T00:13:32;97874.06;;;15.45;100.00
77410;BME280;66481;51.332;22.804;2023-08-07T00:17:33;97862.50;;;15.38;100.00
77410;BME280;66481;51.332;22.804;2023-08-07T00:21:34;97832.81;;;15.41;100.00
77410;BME280;66481;51.332;22.804;2023-08-07T00:25:36;97809.84;;;15.40;100.00
77410;BME280;66481;51.332;22.804;2023-08-07T00:29:38;97773.66;;;15.31;100.00
77410;BME280;66481;51.332;22.804;2023-08-07T00:33:39;97738.78;;;15.26;100.00
77410;BME280;66481;51.332;22.804;2023-08-07T00:37:40;97735.69;;;15.22;100.00
77410;BME280;66481;51.332;22.804;2023-08-07T00:41:41;97781.41;;;15.26;100.00
77410;BME280;66481;51.332;22.804;2023-08-07T00:45:43;97814.41;;;15.25;100.00
77410;BME280;66481;51.332;22.804;2023-08-07T00:49:45;97850.69;;;15.26;100.00
77410;BME280;66481;51.332;22.804;2023-08-07T00:53:48;97853.16;;;15.27;100.00
77410;BME280;66481;51.332;22.804;2023-08-07T00:57:49;97841.19;;;15.16;100.00
77410;BME280;66481;51.332;22.804;2023-08-07T01:01:50;97844.66;;;15.17;100.00
77410;BME280;66481;51.332;22.804;2023-08-07T01:05:51;97843.50;;;15.04;100.00
77410;BME280;66481;51.332;22.804;2023-08-07T01:09:52;97848.50;;;14.93;100.00
77410;BME280;66481;51.332;22.804;2023-08-07T01:14:25;97841.91;;;14.89;100.00
77410;BME280;66481;51.332;22.804;2023-08-07T01:18:29;97829.72;;;14.79;100.00
77410;BME280;66481;51.332;22.804;2023-08-07T01:22:31;97807.63;;;14.64;100.00
77410;BME280;66481;51.332;22.804;2023-08-07T01:26:33;97828.25;;;14.62;100.00
77410;BME280;66481;51.332;22.804;2023-08-07T01:30:36;97839.75;;;14.62;100.00
77410;BME280;66481;51.332;22.804;2023-08-07T01:34:38;97835.59;;;14.60;100.00
77410;BME280;66481;51.332;22.804;2023-08-07T01:38:42;97845.56;;;14.58;100.00
77410;BME280;66481;51.332;22.804;2023-08-07T01:42:44;97841.84;;;14.52;100.00
77410;BME280;66481;51.332;22.804;2023-08-07T01:46:45;97847.97;;;14.53;100.00
77410;BME280;66481;51.332;22.804;2023-08-07T01:50:46;97848.50;;;14.48;100.00
77410;BME280;66481;51.332;22.804;2023-08-07T01:54:47;97853.56;;;14.43;100.00
77410;BME280;66481;51.332;22.804;2023-08-07T01:58:48;97886.16;;;14.45;100.00
77410;BME280;66481;51.332;22.804;2023-08-07T02:02:49;97895.84;;;14.38;100.00
77410;BME280;66481;51.332;22.804;2023-08-07T02:06:50;97909.53;;;14.49;100.00
77410;BME280;66481;51.332;22.804;2023-08-07T02:10:51;97919.81;;;14.53;100.00
77410;BME280;66481;51.332;22.804;2023-08-07T02:14:52;97915.50;;;14.52;100.00
77410;BME280;66481;51.332;22.804;2023-08-07T02:18:53;97934.63;;;14.55;100.00
77410;BME280;66481;51.332;22.804;2023-08-07T02:22:54;97933.41;;;14.58;100.00
77410;BME280;66481;51.332;22.804;2023-08-07T02:26:55;97933.59;;;14.56;100.00
77410;BME280;66481;51.332;22.804;2023-08-07T02:30:56;97930.72;;;14.66;100.00
77410;BME280;66481;51.332;22.804;2023-08-07T02:34:57;97932.53;;;14.65;100.00
77410;BME280;66481;51.332;22.804;2023-08-07T02:38:59;97908.94;;;14.62;100.00
77410;BME280;66481;51.332;22.804;2023-08-07T02:43:00;97887.84;;;14.61;100.00
77410;BME280;66481;51.332;22.804;2023-08-07T02:47:01;97885.88;;;14.55;100.00
77410;BME280;66481;51.332;22.804;2023-08-07T02:51:02;97875.84;;;14.57;100.00
77410;BME280;66481;51.332;22.804;2023-08-07T02:55:04;97872.38;;;14.56;100.00
77410;BME280;66481;51.332;22.804;2023-08-07T02:59:05;97868.91;;;14.56;100.00
77410;BME280;66481;51.332;22.804;2023-08-07T03:03:06;97887.25;;;14.51;100.00
77410;BME280;66481;51.332;22.804;2023-08-07T03:07:08;97903.75;;;14.46;100.00
77410;BME280;66481;51.332;22.804;2023-08-07T03:11:08;97909.19;;;14.53;100.00
77410;BME280;66481;51.332;22.804;2023-08-07T03:15:09;97903.69;;;14.54;100.00
77410;BME280;66481;51.332;22.804;2023-08-07T03:19:10;97902.47;;;14.57;100.00
77410;BME280;66481;51.332;22.804;2023-08-07T03:23:11;97908.66;;;14.57;100.00
77410;BME280;66481;51.332;22.804;2023-08-07T03:27:12;97901.56;;;14.49;100.00
77410;BME280;66481;51.332;22.804;2023-08-07T03:31:13;97906.06;;;14.49;100.00
77410;BME280;66481;51.332;22.804;2023-08-07T03:35:14;97911.09;;;14.44;100.00
77410;BME280;66481;51.332;22.804;2023-08-07T03:39:14;97911.56;;;14.47;100.00
77410;BME280;66481;51.332;22.804;2023-08-07T03:43:15;97919.38;;;14.49;100.00
77410;BME280;66481;51.332;22.804;2023-08-07T03:47:16;97921.41;;;14.47;100.00
77410;BME280;66481;51.332;22.804;2023-08-07T03:51:17;97928.28;;;14.56;99.59
77410;BME280;66481;51.332;22.804;2023-08-07T03:55:18;97927.53;;;14.47;99.66
77410;BME280;66481;51.332;22.804;2023-08-07T03:59:19;97940.59;;;14.57;99.91
77410;BME280;66481;51.332;22.804;2023-08-07T04:03:20;97931.25;;;14.61;98.61
77410;BME280;66481;51.332;22.804;2023-08-07T04:07:21;97938.88;;;14.64;98.15
77410;BME280;66481;51.332;22.804;2023-08-07T04:11:23;97946.09;;;14.71;97.96
77410;BME280;66481;51.332;22.804;2023-08-07T04:15:23;97947.31;;;14.68;96.86
77410;BME280;66481;51.332;22.804;2023-08-07T04:19:24;97958.59;;;14.70;96.61
77410;BME280;66481;51.332;22.804;2023-08-07T04:23:26;97966.88;;;14.75;96.76
77410;BME280;66481;51.332;22.804;2023-08-07T04:27:26;97959.50;;;14.77;95.93
77410;BME280;66481;51.332;22.804;2023-08-07T04:31:28;97962.47;;;14.82;96.40
77410;BME280;66481;51.332;22.804;2023-08-07T04:35:30;97965.41;;;14.88;95.66
77410;BME280;66481;51.332;22.804;2023-08-07T04:39:31;97973.66;;;14.93;95.45
77410;BME280;66481;51.332;22.804;2023-08-07T04:43:33;97984.78;;;14.96;95.28
77410;BME280;66481;51.332;22.804;2023-08-07T04:47:34;97998.09;;;14.96;94.89
77410;BME280;66481;51.332;22.804;2023-08-07T04:51:36;98003.41;;;14.96;94.65
77410;BME280;66481;51.332;22.804;2023-08-07T04:55:37;97995.53;;;15.03;95.42
77410;BME280;66481;51.332;22.804;2023-08-07T04:59:38;98003.16;;;15.06;95.43
77410;BME280;66481;51.332;22.804;2023-08-07T05:03:39;98005.34;;;15.02;95.59
77410;BME280;66481;51.332;22.804;2023-08-07T05:07:41;98008.03;;;15.02;94.46
77410;BME280;66481;51.332;22.804;2023-08-07T05:11:42;97995.69;;;15.01;95.42
77410;BME280;66481;51.332;22.804;2023-08-07T05:15:43;98008.84;;;15.03;95.79
77410;BME280;66481;51.332;22.804;2023-08-07T05:19:44;98007.47;;;15.07;95.04
77410;BME280;66481;51.332;22.804;2023-08-07T05:23:45;98004.97;;;15.20;95.05
77410;BME280;66481;51.332;22.804;2023-08-07T05:27:46;97990.81;;;15.35;94.86
77410;BME280;66481;51.332;22.804;2023-08-07T05:31:48;97984.00;;;15.47;94.38
77410;BME280;66481;51.332;22.804;2023-08-07T05:35:49;97992.44;;;15.51;94.45
77410;BME280;66481;51.332;22.804;2023-08-07T05:39:51;97981.16;;;15.85;91.64
77410;BME280;66481;51.332;22.804;2023-08-07T05:43:51;97979.81;;;16.74;89.38
77410;BME280;66481;51.332;22.804;2023-08-07T05:47:52;97984.63;;;16.57;87.63
77410;BME280;66481;51.332;22.804;2023-08-07T05:51:54;97987.66;;;16.47;88.42
77410;BME280;66481;51.332;22.804;2023-08-07T05:55:55;97991.81;;;16.57;86.73
77410;BME280;66481;51.332;22.804;2023-08-07T05:59:56;97991.13;;;16.76;85.10
77410;BME280;66481;51.332;22.804;2023-08-07T06:03:57;97995.25;;;17.07;85.54
77410;BME280;66481;51.332;22.804;2023-08-07T06:07:58;98006.28;;;17.39;85.48
77410;BME280;66481;51.332;22.804;2023-08-07T06:11:59;97999.56;;;16.80;83.62
77410;BME280;66481;51.332;22.804;2023-08-07T06:16:00;98011.94;;;16.31;85.97
77410;BME280;66481;51.332;22.804;2023-08-07T06:20:02;98029.38;;;16.27;87.98
77410;BME280;66481;51.332;22.804;2023-08-07T06:24:05;98027.06;;;16.02;87.66
77410;BME280;66481;51.332;22.804;2023-08-07T06:28:07;98029.94;;;16.01;87.90
77410;BME280;66481;51.332;22.804;2023-08-07T06:32:08;98028.75;;;15.88;88.88
77410;BME280;66481;51.332;22.804;2023-08-07T06:36:11;98034.06;;;15.67;88.65
77410;BME280;66481;51.332;22.804;2023-08-07T06:40:13;98048.31;;;15.59;89.15
77410;BME280;66481;51.332;22.804;2023-08-07T06:44:14;98049.88;;;15.53;89.11
77410;BME280;66481;51.332;22.804;2023-08-07T06:48:15;98045.00;;;15.57;88.94
77410;BME280;66481;51.332;22.804;2023-08-07T06:52:17;98044.53;;;15.68;88.29
77410;BME280;66481;51.332;22.804;2023-08-07T06:56:18;98048.28;;;15.74;87.66
77410;BME280;66481;51.332;22.804;2023-08-07T07:00:19;98053.47;;;15.75;87.32
77410;BME280;66481;51.332;22.804;2023-08-07T07:04:21;98065.63;;;15.78;87.85
77410;BME280;66481;51.332;22.804;2023-08-07T07:08:22;98059.84;;;15.96;87.40
77410;BME280;66481;51.332;22.804;2023-08-07T07:12:24;98053.56;;;16.04;87.19
77410;BME280;66481;51.332;22.804;2023-08-07T07:16:25;98049.31;;;17.09;84.68
77410;BME280;66481;51.332;22.804;2023-08-07T07:20:26;98057.28;;;18.60;77.86
77410;BME280;66481;51.332;22.804;2023-08-07T07:24:27;98046.34;;;18.82;77.51
77410;BME280;66481;51.332;22.804;2023-08-07T07:28:28;98030.09;;;20.07;72.43
77410;BME280;66481;51.332;22.804;2023-08-07T07:32:29;98032.56;;;21.28;69.12
77410;BME280;66481;51.332;22.804;2023-08-07T07:36:30;98035.44;;;20.07;71.28
77410;BME280;66481;51.332;22.804;2023-08-07T07:40:31;98058.34;;;19.58;73.45
77410;BME280;66481;51.332;22.804;2023-08-07T07:44:33;98069.63;;;18.55;73.48
77410;BME280;66481;51.332;22.804;2023-08-07T07:48:36;98064.19;;;18.15;73.76
77410;BME280;66481;51.332;22.804;2023-08-07T07:52:37;98083.19;;;18.27;75.09
77410;BME280;66481;51.332;22.804;2023-08-07T07:56:38;98066.53;;;18.45;73.69
77410;BME280;66481;51.332;22.804;2023-08-07T08:00:39;98069.97;;;19.45;72.15
77410;BME280;66481;51.332;22.804;2023-08-07T08:04:40;98079.22;;;19.49;70.23
77410;BME280;66481;51.332;22.804;2023-08-07T08:08:41;98080.34;;;20.64;68.07
77410;BME280;66481;51.332;22.804;2023-08-07T08:12:42;98064.97;;;22.07;61.19
77410;BME280;66481;51.332;22.804;2023-08-07T08:16:43;98068.66;;;23.09;58.76
77410;BME280;66481;51.332;22.804;2023-08-07T08:20:44;98076.06;;;24.18;56.17
77410;BME280;66481;51.332;22.804;2023-08-07T08:24:45;98082.63;;;22.52;59.95
77410;BME280;66481;51.332;22.804;2023-08-07T08:28:48;98090.53;;;22.89;59.67
77410;BME280;66481;51.332;22.804;2023-08-07T08:32:48;98085.88;;;23.32;56.72
77410;BME280;66481;51.332;22.804;2023-08-07T08:36:49;98101.56;;;23.58;56.84
77410;BME280;66481;51.332;22.804;2023-08-07T08:40:52;98088.69;;;23.01;57.42
77410;BME280;66481;51.332;22.804;2023-08-07T08:44:55;98098.91;;;23.46;57.42
77410;BME280;66481;51.332;22.804;2023-08-07T08:48:57;98105.94;;;23.36;56.25
77410;BME280;66481;51.332;22.804;2023-08-07T08:53:00;98108.09;;;24.27;54.66
77410;BME280;66481;51.332;22.804;2023-08-07T08:57:06;98114.72;;;24.93;53.45
77410;BME280;66481;51.332;22.804;2023-08-07T09:01:09;98085.84;;;24.53;52.96
77410;BME280;66481;51.332;22.804;2023-08-07T09:05:10;98100.75;;;24.39;53.56
77410;BME280;66481;51.332;22.804;2023-08-07T09:09:13;98117.28;;;23.02;57.04
77410;BME280;66481;51.332;22.804;2023-08-07T09:13:14;98115.19;;;22.20;58.49
77410;BME280;66481;51.332;22.804;2023-08-07T09:17:19;98096.06;;;25.31;55.54
77410;BME280;66481;51.332;22.804;2023-08-07T09:21:21;98100.13;;;23.79;53.11
77410;BME280;66481;51.332;22.804;2023-08-07T09:25:33;98113.59;;;23.15;55.24
77410;BME280;66481;51.332;22.804;2023-08-07T09:29:34;98128.94;;;23.26;57.11
77410;BME280;66481;51.332;22.804;2023-08-07T09:33:35;98127.09;;;24.03;55.41
77410;BME280;66481;51.332;22.804;2023-08-07T09:37:36;98113.19;;;25.53;51.68
77410;BME280;66481;51.332;22.804;2023-08-07T09:41:39;98122.47;;;25.24;52.10
77410;BME280;66481;51.332;22.804;2023-08-07T09:45:40;98120.34;;;23.65;53.31
77410;BME280;66481;51.332;22.804;2023-08-07T09:49:42;98141.31;;;22.92;55.60
77410;BME280;66481;51.332;22.804;2023-08-07T09:53:43;98130.44;;;22.99;54.51
77410;BME280;66481;51.332;22.804;2023-08-07T09:57:44;98124.94;;;24.46;52.94
77410;BME280;66481;51.332;22.804;2023-08-07T10:01:45;98137.97;;;23.68;54.38
77410;BME280;66481;51.332;22.804;2023-08-07T10:05:46;98144.72;;;24.34;53.34
77410;BME280;66481;51.332;22.804;2023-08-07T10:09:47;98134.28;;;22.79;53.91
77410;BME280;66481;51.332;22.804;2023-08-07T10:13:50;98152.50;;;22.53;56.01
77410;BME280;66481;51.332;22.804;2023-08-07T10:17:51;98139.88;;;23.32;54.99
77410;BME280;66481;51.332;22.804;2023-08-07T10:21:52;98151.06;;;24.11;52.53
77410;BME280;66481;51.332;22.804;2023-08-07T10:25:54;98137.78;;;22.19;53.85
77410;BME280;66481;51.332;22.804;2023-08-07T10:29:57;98148.44;;;22.75;55.36
77410;BME280;66481;51.332;22.804;2023-08-07T10:34:00;98147.31;;;22.03;56.01
77410;BME280;66481;51.332;22.804;2023-08-07T10:38:06;98151.88;;;22.94;55.54
77410;BME280;66481;51.332;22.804;2023-08-07T10:42:08;98148.66;;;22.73;54.91
77410;BME280;66481;51.332;22.804;2023-08-07T10:46:20;98131.09;;;24.12;52.24
77410;BME280;66481;51.332;22.804;2023-08-07T10:50:35;98126.25;;;24.14;52.75
77410;BME280;66481;51.332;22.804;2023-08-07T10:54:54;98128.78;;;24.62;52.37
77410;BME280;66481;51.332;22.804;2023-08-07T10:58:55;98125.28;;;23.44;53.06
77410;BME280;66481;51.332;22.804;2023-08-07T11:02:57;98133.25;;;23.04;54.11
77410;BME280;66481;51.332;22.804;2023-08-07T11:06:59;98130.97;;;22.35;54.83
77410;BME280;66481;51.332;22.804;2023-08-07T11:11:04;98134.59;;;22.29;57.40
77410;BME280;66481;51.332;22.804;2023-08-07T11:15:12;98131.31;;;21.71;56.75
77410;BME280;66481;51.332;22.804;2023-08-07T11:19:16;98150.56;;;21.25;58.07
77410;BME280;66481;51.332;22.804;2023-08-07T11:23:23;98152.66;;;21.04;59.06
77410;BME280;66481;51.332;22.804;2023-08-07T11:27:25;98160.75;;;21.48;58.03
77410;BME280;66481;51.332;22.804;2023-08-07T11:31:26;98165.31;;;21.22;57.99
77410;BME280;66481;51.332;22.804;2023-08-07T11:35:29;98154.88;;;21.07;58.69
77410;BME280;66481;51.332;22.804;2023-08-07T11:39:30;98164.75;;;21.13;59.15
77410;BME280;66481;51.332;22.804;2023-08-07T11:43:33;98187.16;;;21.07;59.03
77410;BME280;66481;51.332;22.804;2023-08-07T11:47:34;98175.94;;;21.10;59.70
77410;BME280;66481;51.332;22.804;2023-08-07T11:51:36;98183.09;;;20.98;58.75
77410;BME280;66481;51.332;22.804;2023-08-07T11:55:52;98187.72;;;20.84;59.39
77410;BME280;66481;51.332;22.804;2023-08-07T11:59:54;98187.38;;;20.74;58.66
77410;BME280;66481;51.332;22.804;2023-08-07T12:04:09;98204.69;;;20.84;60.96
77410;BME280;66481;51.332;22.804;2023-08-07T12:08:11;98197.75;;;21.27;59.21
77410;BME280;66481;51.332;22.804;2023-08-07T12:12:12;98196.16;;;21.70;56.03
77410;BME280;66481;51.332;22.804;2023-08-07T12:16:14;98208.91;;;22.00;56.11
77410;BME280;66481;51.332;22.804;2023-08-07T12:20:18;98218.47;;;22.81;56.74
77410;BME280;66481;51.332;22.804;2023-08-07T12:24:19;98225.41;;;22.59;55.90
77410;BME280;66481;51.332;22.804;2023-08-07T12:28:21;98216.06;;;22.24;54.75
77410;BME280;66481;51.332;22.804;2023-08-07T12:32:21;98223.22;;;21.56;55.15
77410;BME280;66481;51.332;22.804;2023-08-07T12:36:23;98231.19;;;21.38;58.37
77410;BME280;66481;51.332;22.804;2023-08-07T12:40:24;98219.38;;;21.14;57.02
77410;BME280;66481;51.332;22.804;2023-08-07T12:44:25;98235.91;;;20.85;58.56
77410;BME280;66481;51.332;22.804;2023-08-07T12:48:27;98230.22;;;21.00;60.33
77410;BME280;66481;51.332;22.804;2023-08-07T12:52:29;98238.31;;;20.62;58.43
77410;BME280;66481;51.332;22.804;2023-08-07T12:56:30;98250.03;;;20.74;60.12
77410;BME280;66481;51.332;22.804;2023-08-07T13:00:32;98253.47;;;20.43;59.39
77410;BME280;66481;51.332;22.804;2023-08-07T13:04:33;98256.13;;;20.50;60.32
77410;BME280;66481;51.332;22.804;2023-08-07T13:08:35;98259.84;;;20.48;60.20
77410;BME280;66481;51.332;22.804;2023-08-07T13:12:37;98255.91;;;20.64;59.03
77410;BME280;66481;51.332;22.804;2023-08-07T13:16:38;98256.28;;;20.68;59.01
77410;BME280;66481;51.332;22.804;2023-08-07T13:20:40;98265.59;;;20.65;59.85
77410;BME280;66481;51.332;22.804;2023-08-07T13:24:41;98266.00;;;20.62;60.26
77410;BME280;66481;51.332;22.804;2023-08-07T13:28:42;98270.97;;;20.59;59.25
77410;BME280;66481;51.332;22.804;2023-08-07T13:32:43;98261.31;;;20.90;59.33
77410;BME280;66481;51.332;22.804;2023-08-07T13:36:44;98270.38;;;20.95;60.09
77410;BME280;66481;51.332;22.804;2023-08-07T13:40:45;98274.16;;;20.88;59.79
77410;BME280;66481;51.332;22.804;2023-08-07T13:44:46;98279.22;;;20.57;59.69
77410;BME280;66481;51.332;22.804;2023-08-07T13:48:47;98274.41;;;20.21;61.22
77410;BME280;66481;51.332;22.804;2023-08-07T13:52:49;98293.47;;;19.99;63.16
77410;BME280;66481;51.332;22.804;2023-08-07T13:56:50;98270.13;;;19.73;63.37
77410;BME280;66481;51.332;22.804;2023-08-07T14:00:51;98281.06;;;19.51;64.66
77410;BME280;66481;51.332;22.804;2023-08-07T14:04:52;98268.09;;;19.42;64.08
77410;BME280;66481;51.332;22.804;2023-08-07T14:08:53;98272.81;;;19.33;65.48
77410;BME280;66481;51.332;22.804;2023-08-07T14:12:56;98267.66;;;19.25;66.26
77410;BME280;66481;51.332;22.804;2023-08-07T14:16:57;98266.59;;;19.26;66.56
77410;BME280;66481;51.332;22.804;2023-08-07T14:21:01;98268.28;;;19.53;64.52
77410;BME280;66481;51.332;22.804;2023-08-07T14:25:02;98259.41;;;19.60;65.74
77410;BME280;66481;51.332;22.804;2023-08-07T14:29:05;98271.78;;;19.54;65.19
77410;BME280;66481;51.332;22.804;2023-08-07T14:33:06;98273.25;;;19.43;65.24
77410;BME280;66481;51.332;22.804;2023-08-07T14:37:08;98275.50;;;19.26;65.48
77410;BME280;66481;51.332;22.804;2023-08-07T14:41:09;98272.56;;;19.08;67.22
77410;BME280;66481;51.332;22.804;2023-08-07T14:45:11;98277.47;;;18.91;66.49
77410;BME280;66481;51.332;22.804;2023-08-07T14:49:11;98280.94;;;18.78;67.12
77410;BME280;66481;51.332;22.804;2023-08-07T14:53:13;98282.38;;;18.74;67.96
77410;BME280;66481;51.332;22.804;2023-08-07T14:57:14;98281.31;;;18.68;68.25
77410;BME280;66481;51.332;22.804;2023-08-07T15:01:15;98295.91;;;18.59;68.75
77410;BME280;66481;51.332;22.804;2023-08-07T15:05:17;98294.63;;;18.48;68.78
77410;BME280;66481;51.332;22.804;2023-08-07T15:09:20;98305.50;;;18.40;69.04
77410;BME280;66481;51.332;22.804;2023-08-07T15:13:23;98311.25;;;18.37;69.83
77410;BME280;66481;51.332;22.804;2023-08-07T15:17:24;98320.34;;;18.36;69.98
77410;BME280;66481;51.332;22.804;2023-08-07T15:21:26;98331.47;;;18.39;70.02
77410;BME280;66481;51.332;22.804;2023-08-07T15:25:27;98333.09;;;18.40;69.58
77410;BME280;66481;51.332;22.804;2023-08-07T15:29:29;98343.81;;;18.40;68.81
77410;BME280;66481;51.332;22.804;2023-08-07T15:33:31;98337.06;;;18.45;69.32
77410;BME280;66481;51.332;22.804;2023-08-07T15:37:32;98351.44;;;18.37;69.19
77410;BME280;66481;51.332;22.804;2023-08-07T15:41:33;98362.41;;;18.49;68.31
77410;BME280;66481;51.332;22.804;2023-08-07T15:45:34;98346.34;;;18.49;67.97
77410;BME280;66481;51.332;22.804;2023-08-07T15:49:36;98346.78;;;18.52;67.91
77410;BME280;66481;51.332;22.804;2023-08-07T15:53:37;98355.88;;;18.58;67.98
77410;BME280;66481;51.332;22.804;2023-08-07T15:57:39;98367.66;;;18.70;67.65
77410;BME280;66481;51.332;22.804;2023-08-07T16:01:40;98361.50;;;18.70;67.88
77410;BME280;66481;51.332;22.804;2023-08-07T16:05:42;98370.16;;;18.72;67.41
77410;BME280;66481;51.332;22.804;2023-08-07T16:09:44;98358.81;;;18.70;68.63
77410;BME280;66481;51.332;22.804;2023-08-07T16:13:45;98366.81;;;18.63;69.65
77410;BME280;66481;51.332;22.804;2023-08-07T16:17:47;98381.88;;;18.64;68.71
77410;BME280;66481;51.332;22.804;2023-08-07T16:21:48;98375.94;;;18.69;69.76
77410;BME280;66481;51.332;22.804;2023-08-07T16:25:49;98376.78;;;18.76;68.93
77410;BME280;66481;51.332;22.804;2023-08-07T16:29:51;98379.91;;;18.79;68.49
77410;BME280;66481;51.332;22.804;2023-08-07T16:33:53;98375.00;;;18.83;67.41
77410;BME280;66481;51.332;22.804;2023-08-07T16:37:55;98368.88;;;19.03;67.95
77410;BME280;66481;51.332;22.804;2023-08-07T16:41:56;98377.22;;;19.28;66.11
77410;BME280;66481;51.332;22.804;2023-08-07T16:45:58;98378.47;;;19.39;66.06
77410;BME280;66481;51.332;22.804;2023-08-07T16:50:00;98372.91;;;19.40;66.74
77410;BME280;66481;51.332;22.804;2023-08-07T16:54:01;98393.13;;;19.29;66.79
77410;BME280;66481;51.332;22.804;2023-08-07T16:58:03;98402.25;;;18.93;67.96
77410;BME280;66481;51.332;22.804;2023-08-07T17:02:06;98403.84;;;18.53;68.73
77410;BME280;66481;51.332;22.804;2023-08-07T17:06:08;98413.81;;;18.31;70.21
77410;BME280;66481;51.332;22.804;2023-08-07T17:10:09;98421.41;;;18.27;69.89
77410;BME280;66481;51.332;22.804;2023-08-07T17:14:14;98428.59;;;18.27;70.64
77410;BME280;66481;51.332;22.804;2023-08-07T17:18:15;98423.63;;;18.23;70.65
77410;BME280;66481;51.332;22.804;2023-08-07T17:22:17;98423.38;;;18.18;70.06
77410;BME280;66481;51.332;22.804;2023-08-07T17:26:18;98421.94;;;18.16;69.41
77410;BME280;66481;51.332;22.804;2023-08-07T17:30:19;98426.81;;;18.06;69.24
77410;BME280;66481;51.332;22.804;2023-08-07T17:34:21;98438.06;;;18.01;68.76
77410;BME280;66481;51.332;22.804;2023-08-07T17:38:23;98448.97;;;17.99;68.93
77410;BME280;66481;51.332;22.804;2023-08-07T17:42:24;98477.16;;;17.95;69.56
77410;BME280;66481;51.332;22.804;2023-08-07T17:46:25;98497.88;;;17.72;71.22
77410;BME280;66481;51.332;22.804;2023-08-07T17:50:28;98512.13;;;17.57;73.70
77410;BME280;66481;51.332;22.804;2023-08-07T17:54:29;98519.13;;;17.58;74.65
77410;BME280;66481;51.332;22.804;2023-08-07T17:58:31;98510.13;;;17.44;74.77
77410;BME280;66481;51.332;22.804;2023-08-07T18:02:32;98509.59;;;17.34;78.46
77410;BME280;66481;51.332;22.804;2023-08-07T18:06:34;98532.19;;;17.17;77.56
77410;BME280;66481;51.332;22.804;2023-08-07T18:10:36;98531.91;;;17.12;77.05
77410;BME280;66481;51.332;22.804;2023-08-07T18:14:38;98529.03;;;16.98;77.32
77410;BME280;66481;51.332;22.804;2023-08-07T18:18:39;98542.06;;;16.78;78.47
77410;BME280;66481;51.332;22.804;2023-08-07T18:22:40;98539.91;;;16.59;78.99
77410;BME280;66481;51.332;22.804;2023-08-07T18:26:41;98560.34;;;16.51;80.27
77410;BME280;66481;51.332;22.804;2023-08-07T18:30:44;98560.34;;;16.51;80.66
77410;BME280;66481;51.332;22.804;2023-08-07T18:34:45;98547.34;;;16.48;81.53
77410;BME280;66481;51.332;22.804;2023-08-07T18:38:46;98548.63;;;16.38;83.02
77410;BME280;66481;51.332;22.804;2023-08-07T18:42:47;98553.41;;;16.19;85.28
77410;BME280;66481;51.332;22.804;2023-08-07T18:46:52;98553.25;;;15.97;87.92
77410;BME280;66481;51.332;22.804;2023-08-07T18:50:54;98556.38;;;15.78;89.34
77410;BME280;66481;51.332;22.804;2023-08-07T18:54:57;98572.59;;;15.52;91.47
77410;BME280;66481;51.332;22.804;2023-08-07T18:58:59;98565.34;;;15.37;93.70
77410;BME280;66481;51.332;22.804;2023-08-07T19:03:04;98567.84;;;15.39;95.82
77410;BME280;66481;51.332;22.804;2023-08-07T19:07:06;98579.97;;;15.41;97.83
77410;BME280;66481;51.332;22.804;2023-08-07T19:11:07;98580.69;;;15.35;98.74
77410;BME280;66481;51.332;22.804;2023-08-07T19:15:09;98585.34;;;15.33;98.97
77410;BME280;66481;51.332;22.804;2023-08-07T19:19:13;98579.88;;;15.27;99.06
77410;BME280;66481;51.332;22.804;2023-08-07T19:23:16;98581.91;;;15.08;98.24
77410;BME280;66481;51.332;22.804;2023-08-07T19:27:18;98592.75;;;15.07;96.60
77410;BME280;66481;51.332;22.804;2023-08-07T19:31:19;98597.91;;;15.00;95.62
77410;BME280;66481;51.332;22.804;2023-08-07T19:35:21;98615.56;;;14.93;94.93
77410;BME280;66481;51.332;22.804;2023-08-07T19:39:23;98620.75;;;14.94;94.65
77410;BME280;66481;51.332;22.804;2023-08-07T19:43:25;98623.22;;;14.88;94.42
77410;BME280;66481;51.332;22.804;2023-08-07T19:47:26;98627.06;;;14.77;95.10
77410;BME280;66481;51.332;22.804;2023-08-07T19:51:29;98626.56;;;14.65;95.37
77410;BME280;66481;51.332;22.804;2023-08-07T19:55:34;98629.75;;;14.60;94.99
77410;BME280;66481;51.332;22.804;2023-08-07T19:59:36;98636.00;;;14.51;95.24
77410;BME280;66481;51.332;22.804;2023-08-07T20:03:39;98635.50;;;14.47;94.61
77410;BME280;66481;51.332;22.804;2023-08-07T20:07:41;98638.00;;;14.41;93.83
77410;BME280;66481;51.332;22.804;2023-08-07T20:11:43;98638.34;;;14.29;94.68
77410;BME280;66481;51.332;22.804;2023-08-07T20:15:44;98643.84;;;14.36;94.39
77410;BME280;66481;51.332;22.804;2023-08-07T20:19:45;98633.69;;;14.40;94.28
77410;BME280;66481;51.332;22.804;2023-08-07T20:23:47;98639.50;;;14.43;95.37
77410;BME280;66481;51.332;22.804;2023-08-07T20:27:48;98642.69;;;14.47;96.05
77410;BME280;66481;51.332;22.804;2023-08-07T20:31:50;98652.31;;;14.48;97.24
77410;BME280;66481;51.332;22.804;2023-08-07T20:35:54;98646.19;;;14.56;97.73
77410;BME280;66481;51.332;22.804;2023-08-07T20:39:56;98655.81;;;14.48;98.34
77410;BME280;66481;51.332;22.804;2023-08-07T20:43:57;98661.97;;;14.41;99.37
77410;BME280;66481;51.332;22.804;2023-08-07T20:47:58;98664.44;;;14.34;99.91
77410;BME280;66481;51.332;22.804;2023-08-07T20:52:00;98666.13;;;14.35;100.00
77410;BME280;66481;51.332;22.804;2023-08-07T20:56:04;98673.13;;;14.36;100.00
77410;BME280;66481;51.332;22.804;2023-08-07T21:00:06;98666.28;;;14.42;100.00